createdAt,value
2018-04-15T00:00:17.958Z,99.90
2018-04-15T00:02:51.426Z,99.90
2018-04-15T00:05:29.282Z,99.90
2018-04-15T00:08:11.783Z,99.90
2018-04-15T00:10:44.503Z,99.90
2018-04-15T00:13:16.809Z,99.90
2018-04-15T00:15:49.755Z,99.90
2018-04-15T00:18:23.063Z,99.90
2018-04-15T00:20:59.466Z,99.90
2018-04-15T00:23:32.747Z,99.90
2018-04-15T00:26:05.174Z,99.90
2018-04-15T00:28:43.007Z,99.90
2018-04-15T00:31:16.213Z,99.90
2018-04-15T00:33:48.871Z,99.90
2018-04-15T00:36:26.044Z,99.90
2018-04-15T00:38:58.407Z,99.90
2018-04-15T00:41:31.914Z,99.90
2018-04-15T00:44:07.170Z,99.90
2018-04-15T00:46:40.799Z,99.90
2018-04-15T00:49:14.219Z,99.90
2018-04-15T00:51:46.776Z,99.90
2018-04-15T00:54:20.799Z,99.90
2018-04-15T00:56:54.141Z,99.90
2018-04-15T00:59:28.551Z,99.90
2018-04-15T01:02:00.966Z,99.90
2018-04-15T01:04:39.050Z,99.90
2018-04-15T01:07:11.822Z,99.90
2018-04-15T01:09:44.376Z,99.90
2018-04-15T01:12:18.546Z,99.90
2018-04-15T01:14:56.701Z,99.90
2018-04-15T01:17:31.024Z,99.90
2018-04-15T01:20:05.196Z,99.90
2018-04-15T01:22:40.889Z,99.90
2018-04-15T01:25:13.576Z,99.90
2018-04-15T01:27:48.219Z,99.90
2018-04-15T01:30:21.578Z,99.90
2018-04-15T01:32:57.186Z,99.90
2018-04-15T01:35:30.576Z,99.90
2018-04-15T01:38:12.695Z,99.90
2018-04-15T01:40:45.203Z,99.90
2018-04-15T01:43:17.882Z,99.90
2018-04-15T01:45:59.206Z,99.90
2018-04-15T01:48:31.564Z,99.90
2018-04-15T01:51:12.454Z,99.90
2018-04-15T01:53:46.106Z,99.90
2018-04-15T01:56:29.106Z,99.90
2018-04-15T01:59:02.527Z,99.90
2018-04-15T02:01:42.229Z,99.90
2018-04-15T02:07:22.353Z,99.90
2018-04-15T02:09:56.040Z,99.90
2018-04-15T02:12:32.244Z,99.90
2018-04-15T02:15:06.008Z,99.90
2018-04-15T02:17:39.559Z,99.90
2018-04-15T02:23:01.481Z,99.90
2018-04-15T02:25:38.303Z,99.90
2018-04-15T02:28:17.908Z,99.90
2018-04-15T02:30:52.887Z,99.90
2018-04-15T02:36:05.106Z,99.90
2018-04-15T02:38:37.609Z,99.90
2018-04-15T02:41:12.723Z,99.90
2018-04-15T02:43:45.540Z,99.90
2018-04-15T02:46:20.575Z,99.90
2018-04-15T02:48:56.690Z,99.90
2018-04-15T02:51:29.471Z,99.90
2018-04-15T02:54:06.776Z,99.90
2018-04-15T02:56:44.753Z,99.90
2018-04-15T02:59:17.290Z,99.90
2018-04-15T03:01:51.455Z,99.90
2018-04-15T03:04:23.975Z,99.90
2018-04-15T03:06:56.666Z,99.90
2018-04-15T03:09:31.151Z,99.90
2018-04-15T03:12:05.550Z,99.90
2018-04-15T03:14:42.170Z,99.90
2018-04-15T03:17:15.788Z,99.90
2018-04-15T03:19:49.344Z,99.90
2018-04-15T03:22:21.768Z,99.90
2018-04-15T03:24:54.235Z,99.90
2018-04-15T03:27:28.059Z,99.90
2018-04-15T03:30:00.637Z,99.90
2018-04-15T03:32:33.158Z,99.90
2018-04-15T03:35:07.266Z,99.90
2018-04-15T03:37:40.477Z,99.90
2018-04-15T03:40:12.916Z,99.90
2018-04-15T03:42:50.810Z,99.90
2018-04-15T03:45:32.792Z,99.90
2018-04-15T03:48:07.266Z,99.90
2018-04-15T03:50:40.668Z,99.90
2018-04-15T03:53:13.989Z,99.90
2018-04-15T03:55:47.371Z,99.90
2018-04-15T03:58:20.826Z,99.90
2018-04-15T04:00:53.197Z,99.90
2018-04-15T04:03:25.606Z,99.90
2018-04-15T04:05:57.975Z,99.90
2018-04-15T04:08:31.330Z,99.90
2018-04-15T04:11:03.958Z,99.90
2018-04-15T04:13:38.373Z,99.90
2018-04-15T04:16:10.740Z,99.90
2018-04-15T04:18:55.530Z,99.90
2018-04-15T04:21:40.079Z,99.90
2018-04-15T04:24:24.605Z,99.90
2018-04-15T04:26:56.974Z,99.90
2018-04-15T04:29:30.134Z,99.90
2018-04-15T04:32:02.422Z,99.90
2018-04-15T04:34:34.838Z,99.90
2018-04-15T04:37:07.204Z,99.90
2018-04-15T04:39:39.970Z,99.90
2018-04-15T04:42:12.501Z,99.90
2018-04-15T04:44:44.918Z,99.90
2018-04-15T04:47:17.442Z,99.90
2018-04-15T04:49:49.979Z,99.90
2018-04-15T04:52:23.258Z,99.90
2018-04-15T04:54:55.718Z,99.90
2018-04-15T04:57:28.278Z,99.90
2018-04-15T05:00:00.847Z,99.90
2018-04-15T05:02:33.267Z,99.90
2018-04-15T05:05:06.435Z,99.90
2018-04-15T05:07:38.748Z,99.90
2018-04-15T05:10:11.230Z,99.90
2018-04-15T05:12:44.284Z,99.90
2018-04-15T05:15:16.742Z,99.90
2018-04-15T05:17:49.045Z,99.90
2018-04-15T05:20:21.378Z,99.90
2018-04-15T05:22:54.446Z,99.90
2018-04-15T05:25:27.060Z,99.90
2018-04-15T05:27:59.511Z,99.90
2018-04-15T05:30:31.954Z,99.90
2018-04-15T05:33:04.354Z,99.90
2018-04-15T05:35:36.854Z,99.90
2018-04-15T05:38:09.336Z,99.90
2018-04-15T05:40:41.759Z,99.90
2018-04-15T05:43:14.074Z,99.90
2018-04-15T05:45:47.268Z,99.90
2018-04-15T05:48:19.695Z,99.90
2018-04-15T05:50:52.055Z,99.90
2018-04-15T05:53:24.550Z,99.90
2018-04-15T05:55:56.960Z,99.90
2018-04-15T05:58:29.447Z,99.90
2018-04-15T06:01:02.795Z,99.90
2018-04-15T06:03:35.063Z,99.90
2018-04-15T06:06:07.450Z,99.90
2018-04-15T06:08:39.730Z,99.90
2018-04-15T06:11:12.354Z,99.90
2018-04-15T06:13:44.622Z,99.90
2018-04-15T06:16:17.692Z,99.90
2018-04-15T06:18:50.782Z,99.90
2018-04-15T06:21:23.369Z,99.90
2018-04-15T06:23:55.766Z,99.90
2018-04-15T06:26:28.199Z,99.90
2018-04-15T06:29:01.346Z,99.90
2018-04-15T06:31:33.974Z,99.90
2018-04-15T06:34:06.518Z,99.90
2018-04-15T06:36:39.033Z,99.90
2018-04-15T06:39:11.387Z,99.90
2018-04-15T06:41:43.954Z,99.90
2018-04-15T06:44:16.414Z,99.90
2018-04-15T06:46:48.955Z,99.90
2018-04-15T06:49:21.962Z,99.90
2018-04-15T06:51:55.267Z,99.90
2018-04-15T06:54:27.593Z,99.90
2018-04-15T06:57:00.027Z,99.90
2018-04-15T06:59:32.554Z,99.90
2018-04-15T07:02:05.083Z,99.90
2018-04-15T07:04:37.601Z,99.90
2018-04-15T07:07:09.924Z,99.90
2018-04-15T07:09:42.244Z,99.90
2018-04-15T07:12:14.694Z,99.90
2018-04-15T07:14:47.909Z,99.90
2018-04-15T07:17:20.346Z,99.90
2018-04-15T07:19:53.594Z,99.90
2018-04-15T07:22:25.998Z,99.90
2018-04-15T07:24:59.034Z,99.90
2018-04-15T07:27:32.226Z,99.90
2018-04-15T07:30:04.595Z,99.90
2018-04-15T07:32:37.057Z,99.90
2018-04-15T07:35:09.518Z,99.90
2018-04-15T07:37:41.966Z,99.90
2018-04-15T07:40:14.238Z,99.90
2018-04-15T07:42:46.570Z,99.90
2018-04-15T07:45:18.903Z,99.90
2018-04-15T07:47:51.270Z,99.90
2018-04-15T07:50:23.779Z,99.90
2018-04-15T07:52:56.667Z,99.90
2018-04-15T07:55:34.486Z,99.90
2018-04-15T07:58:07.818Z,99.90
2018-04-15T08:00:44.454Z,99.90
2018-04-15T08:03:17.510Z,99.90
2018-04-15T08:05:55.870Z,99.90
2018-04-15T08:08:29.847Z,99.90
2018-04-15T08:11:06.054Z,99.90
2018-04-15T08:13:38.600Z,99.90
2018-04-15T08:16:15.842Z,99.90
2018-04-15T08:18:51.046Z,99.90
2018-04-15T08:21:23.386Z,99.90
2018-04-15T08:23:58.170Z,99.90
2018-04-15T08:26:30.569Z,99.90
2018-04-15T08:29:04.898Z,99.90
2018-04-15T08:31:38.533Z,99.90
2018-04-15T08:34:16.743Z,99.90
2018-04-15T08:36:49.215Z,99.90
2018-04-15T08:39:22.011Z,99.90
2018-04-15T08:41:56.326Z,99.90
2018-04-15T08:44:34.857Z,99.90
2018-04-15T08:47:15.102Z,99.90
2018-04-15T08:49:49.603Z,99.90
2018-04-15T08:52:22.785Z,99.90
2018-04-15T08:54:57.310Z,99.90
2018-04-15T08:57:29.615Z,99.90
2018-04-15T09:00:01.949Z,99.90
2018-04-15T09:02:35.470Z,99.90
2018-04-15T09:05:08.994Z,99.90
2018-04-15T09:07:41.478Z,99.90
2018-04-15T09:10:16.634Z,99.90
2018-04-15T09:12:51.875Z,99.90
2018-04-15T09:15:25.065Z,99.90
2018-04-15T09:17:57.579Z,99.90
2018-04-15T09:20:31.010Z,99.90
2018-04-15T09:23:05.519Z,99.90
2018-04-15T09:25:38.742Z,99.90
2018-04-15T09:28:18.457Z,99.90
2018-04-15T09:30:57.026Z,99.90
2018-04-15T09:33:30.044Z,99.90
2018-04-15T09:36:02.793Z,99.90
2018-04-15T09:38:36.403Z,99.90
2018-04-15T09:41:10.078Z,99.90
2018-04-15T09:43:42.364Z,99.90
2018-04-15T09:46:15.054Z,99.90
2018-04-15T09:48:47.759Z,99.90
2018-04-15T09:51:21.471Z,99.90
2018-04-15T09:53:56.607Z,99.90
2018-04-15T09:56:30.961Z,99.90
2018-04-15T09:59:03.632Z,99.90
2018-04-15T10:01:36.303Z,99.90
2018-04-15T10:04:08.746Z,99.90
2018-04-15T10:06:42.066Z,99.90
2018-04-15T10:09:21.758Z,99.90
2018-04-15T10:11:55.986Z,99.90
2018-04-15T10:14:30.414Z,99.90
2018-04-15T10:17:03.826Z,99.90
2018-04-15T10:19:38.237Z,99.90
2018-04-15T10:22:20.526Z,99.90
2018-04-15T10:24:53.719Z,99.90
2018-04-15T10:27:27.262Z,99.90
2018-04-15T10:30:00.823Z,99.90
2018-04-15T10:32:35.238Z,99.90
2018-04-15T10:35:08.827Z,99.90
2018-04-15T10:37:51.436Z,99.90
2018-04-15T10:40:23.941Z,99.90
2018-04-15T10:42:56.346Z,99.90
2018-04-15T10:45:42.296Z,99.90
2018-04-15T10:48:15.877Z,99.90
2018-04-15T10:50:50.182Z,99.90
2018-04-15T10:53:22.703Z,99.90
2018-04-15T10:55:55.150Z,99.90
2018-04-15T10:58:27.890Z,99.90
2018-04-15T11:01:01.389Z,99.90
2018-04-15T11:03:43.215Z,99.90
2018-04-15T11:06:30.370Z,99.90
2018-04-15T11:09:07.252Z,99.90
2018-04-15T11:11:40.731Z,99.90
2018-04-15T11:14:13.837Z,99.90
2018-04-15T11:16:46.412Z,99.90
2018-04-15T11:19:19.854Z,99.90
2018-04-15T11:21:57.926Z,99.90
2018-04-15T11:24:33.812Z,99.90
2018-04-15T11:27:07.426Z,99.90
2018-04-15T11:29:46.618Z,99.90
2018-04-15T11:32:19.662Z,99.90
2018-04-15T11:34:53.127Z,99.90
2018-04-15T11:37:27.620Z,99.90
2018-04-15T11:40:00.747Z,99.90
2018-04-15T11:42:33.210Z,99.90
2018-04-15T11:45:05.649Z,99.90
2018-04-15T11:47:52.378Z,99.90
2018-04-15T11:50:35.317Z,99.90
2018-04-15T11:53:09.693Z,99.90
2018-04-15T11:55:44.140Z,99.90
2018-04-15T11:58:25.113Z,99.90
2018-04-15T12:01:02.735Z,99.90
2018-04-15T12:03:36.238Z,99.90
2018-04-15T12:06:08.760Z,99.90
2018-04-15T12:08:41.404Z,99.90
2018-04-15T12:11:14.882Z,99.90
2018-04-15T12:13:48.234Z,99.90
2018-04-15T12:16:25.380Z,99.90
2018-04-15T12:19:03.655Z,99.90
2018-04-15T12:21:38.128Z,99.90
2018-04-15T12:24:20.334Z,99.90
2018-04-15T12:27:04.726Z,99.90
2018-04-15T12:29:37.264Z,99.90
2018-04-15T12:32:10.828Z,99.90
2018-04-15T12:34:48.683Z,99.90
2018-04-15T12:37:22.963Z,99.90
2018-04-15T12:39:59.710Z,99.90
2018-04-15T12:42:33.975Z,99.90
2018-04-15T12:45:06.314Z,99.90
2018-04-15T12:47:39.738Z,99.90
2018-04-15T12:50:12.275Z,99.90
2018-04-15T12:52:50.695Z,99.90
2018-04-15T12:55:25.067Z,99.90
2018-04-15T12:57:57.677Z,99.90
2018-04-15T13:00:32.171Z,99.90
2018-04-15T13:03:08.902Z,99.90
2018-04-15T13:05:43.962Z,99.90
2018-04-15T13:08:16.354Z,99.90
2018-04-15T13:10:50.872Z,99.90
2018-04-15T13:13:28.085Z,99.90
2018-04-15T13:16:03.857Z,99.90
2018-04-15T13:18:40.023Z,99.90
2018-04-15T13:21:14.678Z,99.90
2018-04-15T13:23:52.975Z,99.90
2018-04-15T13:26:25.998Z,99.90
2018-04-15T13:29:14.203Z,99.90
2018-04-15T13:31:46.719Z,99.90
2018-04-15T13:34:21.455Z,99.90
2018-04-15T13:36:55.581Z,99.90
2018-04-15T13:39:29.727Z,99.90
2018-04-15T13:42:03.253Z,99.90
2018-04-15T13:44:35.719Z,99.90
2018-04-15T13:47:08.092Z,99.90
2018-04-15T13:49:41.737Z,99.90
2018-04-15T13:52:15.294Z,99.90
2018-04-15T13:54:53.606Z,99.90
2018-04-15T13:57:25.909Z,99.90
2018-04-15T14:00:08.493Z,99.90
2018-04-15T14:02:40.922Z,99.90
2018-04-15T14:05:55.208Z,99.90
2018-04-15T14:08:30.903Z,99.90
2018-04-15T14:11:13.528Z,99.90
2018-04-15T14:13:46.008Z,99.90
2018-04-15T14:16:18.416Z,99.90
2018-04-15T14:18:50.946Z,99.90
2018-04-15T14:21:24.622Z,99.90
2018-04-15T14:23:57.091Z,99.90
2018-04-15T14:26:29.675Z,99.90
2018-04-15T14:29:03.115Z,99.90
2018-04-15T14:31:40.071Z,99.50
2018-04-15T14:34:12.427Z,99.70
2018-04-15T14:36:47.678Z,99.20
2018-04-15T14:39:20.290Z,99.20
2018-04-15T14:41:55.507Z,99.90
2018-04-15T14:44:29.074Z,99.90
2018-04-15T14:47:06.578Z,99.90
2018-04-15T14:49:38.937Z,99.90
2018-04-15T14:52:17.440Z,98.50
2018-04-15T14:54:49.754Z,99.90
2018-04-15T14:57:30.635Z,99.90
2018-04-15T15:00:06.403Z,99.90
2018-04-15T15:02:39.023Z,99.90
2018-04-15T15:05:11.570Z,99.90
2018-04-15T15:07:45.951Z,97.40
2018-04-15T15:10:22.938Z,97.40
2018-04-15T15:13:01.378Z,97.00
2018-04-15T15:15:33.695Z,97.40
2018-04-15T15:18:07.358Z,98.40
2018-04-15T15:20:40.850Z,95.20
2018-04-15T15:23:13.289Z,95.40
2018-04-15T15:25:45.712Z,95.20
2018-04-15T15:28:18.237Z,95.30
2018-04-15T15:30:50.484Z,95.00
2018-04-15T15:33:24.626Z,95.10
2018-04-15T15:36:01.101Z,95.10
2018-04-15T15:38:34.458Z,94.90
2018-04-15T15:41:06.959Z,94.90
2018-04-15T15:43:41.147Z,95.80
2018-04-15T15:46:16.430Z,97.70
2018-04-15T15:48:50.300Z,93.90
2018-04-15T15:51:22.744Z,93.00
2018-04-15T15:53:55.631Z,95.40
2018-04-15T15:56:38.214Z,94.20
2018-04-15T15:59:14.406Z,94.30
2018-04-15T16:01:47.998Z,95.90
2018-04-15T16:04:21.971Z,95.30
2018-04-15T16:06:54.546Z,95.20
2018-04-15T16:09:26.951Z,93.90
2018-04-15T16:11:59.402Z,95.00
2018-04-15T16:14:32.951Z,93.50
2018-04-15T16:17:06.527Z,91.90
2018-04-15T16:19:51.019Z,92.60
2018-04-15T16:22:23.382Z,93.70
2018-04-15T16:24:56.669Z,95.20
2018-04-15T16:27:30.004Z,95.20
2018-04-15T16:30:02.440Z,95.40
2018-04-15T16:32:34.970Z,95.20
2018-04-15T16:35:07.567Z,95.70
2018-04-15T16:37:53.930Z,96.40
2018-04-15T16:40:27.425Z,95.80
2018-04-15T16:42:59.951Z,94.90
2018-04-15T16:45:32.481Z,96.50
2018-04-15T16:48:06.575Z,97.30
2018-04-15T16:50:40.990Z,97.30
2018-04-15T16:53:13.297Z,97.90
2018-04-15T16:55:47.499Z,99.90
2018-04-15T16:58:21.908Z,99.90
2018-04-15T17:00:59.631Z,99.90
2018-04-15T17:03:36.861Z,99.90
2018-04-15T17:06:10.410Z,99.90
2018-04-15T17:08:42.788Z,99.90
2018-04-15T17:11:15.324Z,99.90
2018-04-15T17:13:49.640Z,99.90
2018-04-15T17:16:22.218Z,99.90
2018-04-15T17:18:55.266Z,99.90
2018-04-15T17:21:27.955Z,99.90
2018-04-15T17:24:01.386Z,99.90
2018-04-15T17:26:39.047Z,99.90
2018-04-15T17:29:13.376Z,99.90
2018-04-15T17:31:47.054Z,99.90
2018-04-15T17:34:20.442Z,99.90
2018-04-15T17:36:55.627Z,99.90
2018-04-15T17:39:30.139Z,99.90
2018-04-15T17:42:04.161Z,99.90
2018-04-15T17:44:37.391Z,99.90
2018-04-15T17:47:31.963Z,99.90
2018-04-15T17:50:08.287Z,99.90
2018-04-15T17:52:40.678Z,99.90
2018-04-15T17:55:13.955Z,99.90
2018-04-15T17:57:47.894Z,99.90
2018-04-15T18:00:20.414Z,99.90
2018-04-15T18:03:02.620Z,99.90
2018-04-15T18:05:41.059Z,99.90
2018-04-15T18:08:17.415Z,99.90
2018-04-15T18:10:51.510Z,99.90
2018-04-15T18:13:24.034Z,99.90
2018-04-15T18:15:57.410Z,99.90
2018-04-15T18:18:32.143Z,99.90
2018-04-15T18:21:05.264Z,99.90
2018-04-15T18:23:37.662Z,99.90
2018-04-15T18:26:12.092Z,99.90
2018-04-15T18:29:01.742Z,99.90
2018-04-15T18:31:35.732Z,99.90
2018-04-15T18:34:09.945Z,99.90
2018-04-15T18:36:45.004Z,99.90
2018-04-15T18:39:17.566Z,99.90
2018-04-15T18:41:50.289Z,99.90
2018-04-15T18:44:30.348Z,99.90
2018-04-15T18:47:02.756Z,99.90
2018-04-15T18:49:36.499Z,99.90
2018-04-15T18:52:08.812Z,99.90
2018-04-15T18:54:42.447Z,99.90
2018-04-15T18:57:16.642Z,99.90
2018-04-15T18:59:49.013Z,99.90
2018-04-15T19:02:21.426Z,99.90
2018-04-15T19:04:55.607Z,99.90
2018-04-15T19:07:29.247Z,99.90
2018-04-15T19:10:01.858Z,99.90
2018-04-15T19:12:37.423Z,99.90
2018-04-15T19:15:11.096Z,99.90
2018-04-15T19:17:53.071Z,99.90
2018-04-15T19:20:25.514Z,99.90
2018-04-15T19:22:58.055Z,99.90
2018-04-15T19:25:45.356Z,99.90
2018-04-15T19:28:18.762Z,99.90
2018-04-15T19:30:51.175Z,99.90
2018-04-15T19:33:23.771Z,99.90
2018-04-15T19:35:56.899Z,99.90
2018-04-15T19:38:31.279Z,99.90
2018-04-15T19:41:05.461Z,99.90
2018-04-15T19:43:39.191Z,99.90
2018-04-15T19:46:11.698Z,99.90
2018-04-15T19:48:44.125Z,99.90
2018-04-15T19:51:17.398Z,99.90
2018-04-15T19:53:49.898Z,99.90
2018-04-15T19:56:23.162Z,99.90
2018-04-15T19:58:55.779Z,99.90
2018-04-15T20:01:33.445Z,99.90
2018-04-15T20:04:05.823Z,99.90
2018-04-15T20:06:43.055Z,99.90
2018-04-15T20:09:17.634Z,99.90
2018-04-15T20:11:50.012Z,99.90
2018-04-15T20:14:22.659Z,99.90
2018-04-15T20:16:55.372Z,99.90
2018-04-15T20:19:27.718Z,99.90
2018-04-15T20:22:01.175Z,99.90
2018-04-15T20:24:33.814Z,99.90
2018-04-15T20:27:06.999Z,99.90
2018-04-15T20:29:41.266Z,99.90
2018-04-15T20:32:13.952Z,99.90
2018-04-15T20:34:47.444Z,99.90
2018-04-15T20:37:20.769Z,99.90
2018-04-15T20:39:55.971Z,99.90
2018-04-15T20:42:28.508Z,99.90
2018-04-15T20:45:02.730Z,99.90
2018-04-15T20:47:40.742Z,99.90
2018-04-15T20:50:13.272Z,99.90
2018-04-15T20:52:46.995Z,99.90
2018-04-15T20:55:20.376Z,99.90
2018-04-15T20:57:52.930Z,99.90
2018-04-15T21:00:25.538Z,99.90
2018-04-15T21:02:59.194Z,99.90
2018-04-15T21:05:36.823Z,99.90
2018-04-15T21:08:13.287Z,99.90
2018-04-15T21:10:46.807Z,99.90
2018-04-15T21:13:19.278Z,99.90
2018-04-15T21:15:53.472Z,99.90
2018-04-15T21:18:25.998Z,99.90
2018-04-15T21:20:59.579Z,99.90
2018-04-15T21:23:35.986Z,99.90
2018-04-15T21:26:08.439Z,99.90
2018-04-15T21:28:41.050Z,99.90
2018-04-15T21:31:13.514Z,99.90
2018-04-15T21:33:46.179Z,99.90
2018-04-15T21:36:29.556Z,99.90
2018-04-15T21:39:02.022Z,99.90
2018-04-15T21:41:42.436Z,99.90
2018-04-15T21:44:17.023Z,99.90
2018-04-15T21:46:50.471Z,99.90
2018-04-15T21:49:22.978Z,99.90
2018-04-15T21:51:58.991Z,99.90
2018-04-15T21:54:31.418Z,99.90
2018-04-15T21:57:08.738Z,99.90
2018-04-15T21:59:42.401Z,99.90
2018-04-15T22:02:26.660Z,99.90
2018-04-15T22:04:59.483Z,99.90
2018-04-15T22:07:31.874Z,99.90
2018-04-15T22:10:09.938Z,99.90
2018-04-15T22:12:43.326Z,99.90
2018-04-15T22:15:16.238Z,99.90
2018-04-15T22:17:50.660Z,99.90
2018-04-15T22:20:25.410Z,99.90
2018-04-15T22:23:13.109Z,99.90
2018-04-15T22:25:45.759Z,99.90
2018-04-15T22:28:19.463Z,99.90
2018-04-15T22:30:51.931Z,99.90
2018-04-15T22:33:25.358Z,99.90
2018-04-15T22:35:59.763Z,99.90
2018-04-15T22:38:32.285Z,99.90
2018-04-15T22:41:04.679Z,99.90
2018-04-15T22:43:37.766Z,99.90
2018-04-15T22:46:11.308Z,99.90
2018-04-15T22:48:44.960Z,99.90
2018-04-15T22:51:19.397Z,99.90
2018-04-15T22:53:52.958Z,99.90
2018-04-15T22:56:26.437Z,99.90
2018-04-15T22:58:59.088Z,99.90
2018-04-15T23:01:31.802Z,99.90
2018-04-15T23:04:04.492Z,99.90
2018-04-15T23:06:37.982Z,99.90
2018-04-15T23:09:12.275Z,99.90
2018-04-15T23:11:44.597Z,99.90
2018-04-15T23:14:17.074Z,99.90
2018-04-15T23:16:50.944Z,99.90
2018-04-15T23:19:24.298Z,99.90
2018-04-15T23:21:58.267Z,99.90
2018-04-15T23:24:30.745Z,99.90
2018-04-15T23:27:06.101Z,99.90
2018-04-15T23:29:39.669Z,99.90
2018-04-15T23:32:20.212Z,99.90
2018-04-15T23:34:52.559Z,99.90
2018-04-15T23:37:25.073Z,99.90
2018-04-15T23:39:58.584Z,99.90
2018-04-15T23:42:34.351Z,99.90
2018-04-15T23:45:10.701Z,99.90
2018-04-15T23:47:43.258Z,99.90
2018-04-15T23:50:16.776Z,99.90
2018-04-15T23:52:50.514Z,99.90
2018-04-15T23:55:23.991Z,99.90
2018-04-15T23:57:56.980Z,99.90
